Flight Track Log - Related Links

Times and Time Zones

All times are in EDT time to prevent confusion due to time zone crossing. See the N1570N flight status page for this flight to view local times or setup timezone preferences in your user account.

Time Position Orientation Groundspeed Altitude Reporting Facility
EDT Latitude Longitude Course Direction KTS MPH feet Rate Location/Type
Wed 05:55:22 PM 35.5283 -90.6708 296° West 176 203 6,500  Level Memphis Center
Wed 05:56:22 PM 35.5514 -90.7297 296° West 181 208 6,500  Level Memphis Center
Wed 05:57:22 PM 35.5781 -90.7858 300° West 188 216 6,500  Level Memphis Center
Wed 05:58:22 PM 35.6031 -90.8422 299° West 188 216 6,500  Level Memphis Center
Wed 05:59:22 PM 35.6278 -90.8986 298° West 188 216 6,500  Level Memphis Center
Wed 06:00:22 PM 35.6525 -90.9575 297° West 188 216 6,500  Level Memphis Center
Wed 06:01:22 PM 35.6794 -91.0164 299° West 188 216 6,500  Level Memphis Center
Wed 06:02:22 PM 35.7000 -91.0678 296° West 189 217 6,500  Level Memphis Center
Wed 06:03:22 PM 35.7308 -91.1267 303° West 196 226 6,500  Level Memphis Center
Wed 06:04:22 PM 35.7556 -91.1808 299° West 191 220 6,500 -50 Level Memphis Center
Wed 06:05:22 PM 35.7803 -91.2397 297° West 191 220 6,400  Descending Memphis Center
Wed 06:06:22 PM 35.8028 -91.2914 298° West 191 220 6,500  Climbing Memphis Center
Wed 06:07:22 PM 35.8294 -91.3506 299° West 191 220 6,400  Descending Memphis Center
Wed 06:08:22 PM 35.8539 -91.4044 299° West 191 220 6,500 50 Climbing Memphis Center
Wed 06:09:22 PM 35.8889 -91.4742 302° West 202 232 6,500  Level Memphis Center
Wed 06:10:22 PM 35.9133 -91.5283 299° West 202 232 6,500 -50 Level Memphis Center
Wed 06:11:22 PM 35.9442 -91.5878 303° West 202 232 6,400  Descending Memphis Center
Wed 06:12:22 PM 35.9583 -91.6342 291° West 193 222 6,500  Climbing Memphis Center
Wed 06:13:22 PM 35.9889 -91.6936 302° West 193 222 6,400  Descending Memphis Center
Wed 06:14:22 PM 36.0194 -91.7506 304° West 193 222 6,500 50 Climbing Memphis Center
Wed 06:15:22 PM 36.0458 -91.8100 299° West 193 222 6,500  Level Memphis Center
Wed 06:16:22 PM 36.0725 -91.8669 300° West 186 214 6,500  Level Memphis Center

Login

Don't have an account? Register now (free) for customized features, flight alerts, and more!